Latest Coastal Weather Observations for Cape Borda

IDT60701

Issued at 3:52 pm EDT Monday 27 February 2017 (issued every 10 minutes, with the page automatically refreshed every 10 minutes)

About coastal observations | Map of coastal stations | Coastal observations for TAS | Marine services | Other Formats
Station Details ID: 022823 Name: CAPE BORDA Lat: -35.75 Lon: 136.60 Height: 158.0 m
Data from the previous 72 hours. | See also: Recent months at Cape Borda
Date/Time
EDT
Temp
°C
Wind Pressure Rain since
9am
mm
Weather Cloud Vis
km
Sea
Height
m
Swell
Dir  Spd
kts
Gust
kts
hPa Trend Height
m
Period
s
Dir
27/03:30pm 28.9 SW 6 10 1017.7 F 0.2 Fine Clear 20 <0.1 2.2 7 SW
27/03:00pm 27.4 WSW 7 9 1018.2 - 0.2 - - - - - - -
27/02:30pm 27.3 W 6 8 1018.5 - 0.2 - - - - - - -
27/02:00pm 28.5 N 7 9 1018.6 - 0.2 - - - - - - -
27/01:30pm 28.7 NNE 7 10 1018.7 - 0.2 - - - - - - -
27/01:00pm 28.2 NNE 8 11 1018.9 - 0.2 - - - - - - -
27/12:30pm 26.8 NE 9 12 1018.9 - 0.2 - - - - - - -
27/12:00pm 26.8 NE 8 11 1019.2 - 0.2 - - - - - - -
27/11:30am 25.7 ENE 9 13 1019.2 - 0.2 - - - - - - -
27/11:00am 24.7 ENE 10 15 1019.2 - 0.0 - - - - - - -
27/10:30am 22.7 NE 6 9 1019.1 - 0.0 - - - - - - -
27/10:00am 21.0 NE 7 11 1019.0 - 0.0 - - - - - - -
27/09:30am 19.4 NE 5 7 1018.7 F 0.0 Fine Clear 15 <0.1 2.3 6 SW
27/09:00am 16.8 ENE 6 8 1018.8 - 0.0 - - - - - - -
27/08:30am 13.8 ENE 8 8 1018.7 - 0.0 - - - - - - -
27/08:00am 11.0 NE 5 6 1018.6 - 0.0 - - - - - - -
27/07:30am 10.4 E 7 8 1018.5 - 0.0 - - - - - - -
27/07:00am 9.9 ESE 8 9 1018.4 - 0.0 - - - - - - -
27/06:30am 9.6 SE 7 8 1018.1 - 0.0 - - - - - - -
27/06:00am 10.0 SE 7 8 1018.4 - 0.0 - - - - - - -
27/05:30am 10.1 SE 8 8 1018.5 - 0.0 - - - - - - -
27/05:00am 11.4 NE 5 6 1018.3 - 0.0 - - - - - - -
27/04:30am 11.6 ENE 6 7 1018.2 - 0.0 - - - - - - -
27/04:00am 11.9 E 9 11 1018.0 - 0.0 - - - - - - -
27/03:30am 12.4 ESE 10 12 1017.9 - 0.0 - - - - - - -
27/03:00am 12.7 ESE 10 12 1018.4 - 0.0 - - - - - - -
27/02:30am 13.5 ESE 12 15 1018.8 - 0.0 - - - - - - -
27/02:00am 13.5 ESE 12 14 1019.2 - 0.0 - - - - - - -
27/01:30am 13.5 ESE 10 14 1019.4 - 0.0 - - - - - - -
27/01:00am 13.6 ESE 12 14 1019.4 - 0.0 - - - - - - -
27/12:30am 13.7 SE 11 15 1019.1 - 0.0 - - - - - - -
27/12:00am 13.9 ESE 11 15 1019.6 - 0.0 - - - - - - -
 
Date/Time
EDT
Temp
°C
Wind Pressure Rain since
9am
mm
Weather Cloud Vis
km
Sea
Height
m
Swell
Dir  Spd
kts
Gust
kts
hPa Trend Height
m
Period
s
Dir
26/11:30pm 14.1 ESE 13 17 1019.7 - 0.0 - - - - - - -
26/11:00pm 14.1 ESE 13 16 1019.7 - 0.0 - - - - - - -
26/10:30pm 14.6 ESE 12 16 1019.9 - 0.0 - - - - - - -
26/10:00pm 14.8 SE 12 16 1019.6 - 0.0 - - - - - - -
26/09:30pm 15.3 ESE 13 16 1019.0 - 0.0 - - - - - - -
26/09:00pm 16.4 SE 12 16 1019.1 - 0.0 - - - - - - -
26/08:30pm 17.8 SE 14 17 1018.8 - 0.0 - - - - - - -
26/08:00pm 19.9 SE 11 15 1018.7 - 0.0 - - - - - - -
26/07:30pm 21.9 SE 10 13 1018.5 - 0.0 - - - - - - -
26/07:00pm 21.6 N 5 7 1018.5 - 0.0 - - - - - - -
26/06:30pm 22.6 WNW 6 8 1018.2 - 0.0 - - - - - - -
26/06:00pm 22.2 W 6 8 1018.5 - 0.0 - - - - - - -
26/05:30pm 21.6 W 6 7 1018.4 - 0.0 - - - - - - -
26/05:00pm 20.6 W 7 9 1018.6 - 0.0 - - - - - - -
26/04:30pm 20.3 WNW 7 9 1018.9 - 0.0 - - - - - - -
26/04:00pm 19.8 W 8 11 1019.1 - 0.0 - - - - - - -
26/03:30pm 19.6 W 10 13 1019.1 R 0.0 Fine Clear 15 <0.5 3.6 7 SW
26/03:00pm 19.8 W 9 11 1019.5 - 0.0 - - - - - - -
26/02:30pm 19.5 NNW 6 10 1019.7 - 0.0 - - - - - - -
26/02:00pm 20.2 N 10 13 1019.7 - 0.0 - - - - - - -
26/01:30pm 20.8 NNE 9 13 1019.8 - 0.0 - - - - - - -
26/01:00pm 20.2 NNE 9 13 1020.2 - 0.0 - - - - - - -
26/12:30pm 19.2 NNE 9 13 1020.0 - 0.0 - - - - - - -
26/12:00pm 19.7 NNE 8 11 1020.6 - 0.0 - - - - - - -
26/11:30am 19.1 NNE 8 11 1020.6 - 0.0 - - - - - - -
26/11:00am 19.0 E 7 11 1021.0 - 0.0 - - - - - - -
26/10:30am 17.7 ESE 9 11 1021.3 - 0.0 - - - - - - -
26/10:00am 16.5 ESE 9 13 1021.5 - 0.0 - - - - - - -
26/09:30am 14.9 ESE 11 15 1021.1 F 0.0 Fine Clear 15 <0.5 4.9 7 SW
26/09:00am 13.3 ESE 10 13 1021.4 - 0.0 - - - - - - -
26/08:30am 11.8 ESE 10 13 1021.2 - 0.0 - - - - - - -
26/08:00am 11.0 ESE 11 14 1021.0 - 0.0 - - - - - - -
26/07:30am 10.9 ESE 11 15 1021.1 - 0.0 - - - - - - -
26/07:00am 10.9 ESE 11 14 1021.1 - 0.0 - - - - - - -
26/06:30am 10.7 ESE 10 13 1020.4 - 0.0 - - - - - - -
26/06:00am 11.0 ESE 11 13 1020.6 - 0.0 - - - - - - -
26/05:30am 11.0 ESE 10 13 1020.6 - 0.0 - - - - - - -
26/05:00am 11.3 ESE 9 13 1020.5 - 0.0 - - - - - - -
26/04:30am 11.4 ESE 9 15 1020.8 - 0.0 - - - - - - -
26/04:00am 11.5 ESE 9 11 1021.1 - 0.0 - - - - - - -
26/03:30am 11.4 E 6 8 1021.2 - 0.0 - - - - - - -
26/03:00am 11.8 E 8 11 1021.7 - 0.0 - - - - - - -
26/02:30am 12.1 ENE 5 7 1021.9 - 0.0 - - - - - - -
26/02:00am 12.5 E 9 14 1022.2 - 0.0 - - - - - - -
26/01:30am 12.5 ESE 7 9 1022.5 - 0.0 - - - - - - -
26/01:00am 12.4 E 7 10 1022.8 - 0.0 - - - - - - -
26/12:30am 12.7 ESE 5 12 1022.7 - 0.0 - - - - - - -
26/12:00am 13.1 ESE 8 13 1023.2 - 0.0 - - - - - - -
 
Date/Time
EDT
Temp
°C
Wind Pressure Rain since
9am
mm
Weather Cloud Vis
km
Sea
Height
m
Swell
Dir  Spd
kts
Gust
kts
hPa Trend Height
m
Period
s
Dir
25/11:30pm 13.2 ESE 9 15 1023.3 - 0.0 - - - - - - -
25/11:00pm 13.3 ESE 10 16 1023.3 - 0.0 - - - - - - -
25/10:30pm 13.2 ESE 9 15 1023.4 - 0.0 - - - - - - -
25/10:00pm 13.5 SE 9 14 1023.5 - 0.0 - - - - - - -
25/09:30pm 13.9 SE 9 14 1023.2 - 0.0 - - - - - - -
25/09:00pm 14.5 SE 13 19 1023.3 - 0.0 - - - - - - -
25/08:30pm 15.3 SE 11 15 1023.4 - 0.0 - - - - - - -
25/08:00pm 16.3 SE 13 19 1023.3 - 0.0 - - - - - - -
25/07:30pm 17.4 SE 13 18 1023.3 - 0.0 - - - - - - -
25/07:00pm 18.7 SE 11 17 1023.4 - 0.0 - - - - - - -
25/06:30pm 19.1 SE 12 17 1023.2 - 0.0 - - - - - - -
25/06:00pm 20.1 SE 13 18 1023.5 - 0.0 - - - - - - -
25/05:30pm 20.6 SE 13 18 1023.6 - 0.0 - - - - - - -
25/05:00pm 22.1 SE 14 18 1023.7 - 0.0 - - - - - - -
25/04:30pm 22.2 SE 14 20 1023.7 - 0.0 - - - - - - -
25/04:00pm 22.0 SE 11 17 1024.0 - 0.0 - - - - - - -
25/03:30pm 22.3 SSE 11 15 1023.9 F 0.0 Fine Mostly clear 28 <0.5 5.6 10 SW
25/03:00pm 21.8 SSE 11 16 1024.7 - 0.0 - - - - - - -
25/02:30pm 21.4 SE 10 18 1025.1 - 0.0 - - - - - - -
25/02:00pm 21.9 ESE 9 15 1025.4 - 0.0 - - - - - - -
25/01:30pm 21.3 SE 8 13 1025.7 - 0.0 - - - - - - -
25/01:00pm 20.8 SE 8 14 1026.0 - 0.0 - - - - - - -
25/12:30pm 19.5 SE 8 13 1026.0 - 0.0 - - - - - - -
25/12:00pm 18.7 SSE 13 17 1026.6 - 0.0 - - - - - - -
25/11:30am 18.1 SE 10 15 1026.7 - 0.0 - - - - - - -
25/11:00am 19.2 SSE 8 13 1026.7 - 0.0 - - - - - - -
25/10:30am 17.9 SE 10 13 1026.9 - 0.0 - - - - - - -
25/10:00am 16.8 SSE 10 14 1026.9 - 0.0 - - - - - - -
25/09:30am 15.9 SSE 9 14 1026.6 F 0.0 Distant precip. Mostly cloudy 28 <0.5 5.4 9 SW
25/09:00am 14.7 SE 8 11 1026.7 - 0.0 - - - - - - -
25/08:30am 14.4 SSE 7 11 1026.6 - 0.0 - - - - - - -
25/08:00am 13.5 SE 6 8 1026.4 - 0.0 - - - - - - -
25/07:30am 12.8 SE 5 6 1026.1 - 0.0 - - - - - - -
25/07:00am 14.3 SE 4 6 1026.1 - 0.0 - - - - - - -
25/06:30am 14.4 SSE 5 6 1025.8 - 0.0 - - - - - - -
25/06:00am 14.3 SSE 6 9 1026.0 - 0.0 - - - - - - -
25/05:30am 14.0 SSE 6 8 1025.8 - 0.0 - - - - - - -
25/05:00am 14.0 SSE 8 11 1025.7 - 0.0 - - - - - - -
25/04:30am 13.5 SSE 8 11 1025.8 - 0.0 - - - - - - -
25/04:00am 13.1 SSE 8 10 1025.7 - 0.0 - - - - - - -
25/03:30am 12.2 SSE 7 8 1025.6 - 0.0 - - - - - - -
25/03:00am 12.6 SSE 7 8 1026.3 - 0.0 - - - - - - -
25/02:30am 12.5 SE 8 9 1026.5 - 0.0 - - - - - - -
25/02:00am 12.9 SSE 8 11 1026.6 - 0.0 - - - - - - -
25/01:30am 13.6 SSE 8 11 1027.0 - 0.0 - - - - - - -
25/01:00am 13.0 SSE 7 9 1027.2 - 0.0 - - - - - - -
25/12:30am 11.9 SSE 7 9 1027.1 - 0.0 - - - - - - -
25/12:00am 12.2 SSE 8 9 1027.6 - 0.0 - - - - - - -
 
Date/Time
EDT
Temp
°C
Wind Pressure Rain since
9am
mm
Weather Cloud Vis
km
Sea
Height
m
Swell
Dir  Spd
kts
Gust
kts
hPa Trend Height
m
Period
s
Dir
24/11:30pm 12.5 SSE 8 9 1027.9 - 0.0 - - - - - - -
24/11:00pm 12.4 SSE 8 9 1027.9 - 0.0 - - - - - - -
24/10:30pm 12.5 SSE 8 10 1027.9 - 0.0 - - - - - - -
24/10:00pm 12.8 SSE 7 9 1027.8 - 0.0 - - - - - - -
24/09:30pm 13.4 SSE 7 9 1027.4 - 0.0 - - - - - - -
24/09:00pm 14.7 SSE 9 12 1027.5 - 0.0 - - - - - - -
24/08:30pm 16.2 SE 9 14 1027.2 - 0.0 - - - - - - -
24/08:00pm 16.5 SSE 11 17 1027.1 - 0.0 - - - - - - -
24/07:30pm 16.4 SSE 15 19 1026.9 - 0.0 - - - - - - -
24/07:00pm 16.7 SSE 12 18 1026.9 - 0.0 - - - - - - -
24/06:30pm 17.8 SSE 12 17 1026.5 - 0.0 - - - - - - -
24/06:00pm 18.1 SE 13 17 1026.7 - 0.0 - - - - - - -
24/05:30pm 18.0 S 14 19 1026.6 - 0.0 - - - - - - -
24/05:00pm 18.7 S 13 18 1026.6 - 0.0 - - - - - - -
24/04:30pm 19.1 SSE 11 17 1026.7 - 0.0 - - - - - - -

Other Formats:

Comma delimited format used in spreadsheet applications
http://www.bom.gov.au/fwo/IDT60701/IDT60701.95805.axf

JavaScript Object Notation format (JSON) in row-major order
http://www.bom.gov.au/fwo/IDT60701/IDT60701.95805.json